Terminal Aerodrome Forecast
Issued by NWS

Home | Current Version | Previous Version | Text Only | Print | Product List | Glossary On
Versions: 1 2 3 4 5 6 7 8 9 10 11 12 13 14 15 16 17 18
000
FTUS45 KBOU 241133
TAFBJC
TAF
KBJC 241133Z 2412/2512 16006KT P6SM VCSH SCT060 BKN100 OVC140
     FM241800 11012KT P6SM SCT080 BKN120 PROB30 2422/2502 VRB15G25KT
      -TSRA BKN060CB
     FM250200 12007KT P6SM FEW080 BKN120
     FM250600 36008KT P6SM SCT120 BKN200
     FM250900 33008KT P6SM SCT120=

USA.gov is the U.S. government's official web portal to all federal, state and local government web resources and services.